Time;durP1;ratioP1;P1;durP2;ratioP2;P2;SDS_P1;SDS_P2;PMS_P1;PMS_P2;Temp;Humidity;BMP_temperature;BMP_pressure;BME280_temperature;BME280_humidity;BME280_pressure;Samples;Min_cycle;Max_cycle;Signal;HPM_P1;HPM_P2
2021/12/29 00:00:21;;;;;;;13.10;8.70;;;;;;;8.55;97.34;99901.34;5047537;28;20617;-73
2021/12/29 00:02:47;;;;;;;12.13;8.60;;;;;;;8.64;96.60;99907.22;5043215;28;20060;-75
2021/12/29 00:05:13;;;;;;;12.25;7.88;;;;;;;8.54;97.98;99907.00;5050265;28;20124;-73
2021/12/29 00:07:38;;;;;;;13.85;8.80;;;;;;;8.56;97.64;99907.56;5042912;28;20516;-71
2021/12/29 00:10:05;;;;;;;13.18;8.18;;;;;;;8.52;97.28;99910.72;5052619;28;20033;-71
2021/12/29 00:12:34;;;;;;;14.98;8.55;;;;;;;8.55;97.87;99932.91;5047195;28;20384;-72
2021/12/29 00:14:59;;;;;;;14.93;9.35;;;;;;;8.56;97.67;99931.84;5052770;28;20064;-72
2021/12/29 00:17:25;;;;;;;11.35;8.57;;;;;;;8.55;98.04;99944.50;5052560;28;20106;-70
2021/12/29 00:19:50;;;;;;;11.60;7.90;;;;;;;8.56;98.05;99956.94;5053146;28;20047;-71
2021/12/29 00:22:16;;;;;;;12.20;8.60;;;;;;;8.59;97.79;99969.13;5053264;28;20029;-72
2021/12/29 00:24:41;;;;;;;11.02;6.90;;;;;;;8.60;97.56;99973.47;5052837;28;20033;-72
2021/12/29 00:27:07;;;;;;;12.60;7.82;;;;;;;8.56;97.91;99980.38;5052632;28;20025;-71
2021/12/29 00:29:46;;;;;;;8.55;7.28;;;;;;;8.54;98.06;99977.09;5046992;28;20041;-72
2021/12/29 00:32:17;;;;;;;10.45;7.30;;;;;;;8.48;97.94;99976.16;5051201;28;20033;-73
2021/12/29 00:34:42;;;;;;;13.30;7.65;;;;;;;8.50;97.94;99980.25;5049478;28;20111;-72
2021/12/29 00:37:08;;;;;;;11.88;7.97;;;;;;;8.45;98.07;99979.31;5037022;28;20060;-72
2021/12/29 00:39:33;;;;;;;11.93;9.10;;;;;;;8.45;98.22;99988.22;5051905;28;20033;-72
2021/12/29 00:41:58;;;;;;;13.18;8.77;;;;;;;8.47;98.38;99998.75;5052582;28;20033;-71
2021/12/29 00:44:24;;;;;;;15.40;9.13;;;;;;;8.44;97.74;99991.13;5051100;28;20028;-72
2021/12/29 00:46:53;;;;;;;12.02;8.70;;;;;;;8.47;98.20;100009.53;5046081;28;20027;-72
2021/12/29 00:49:20;;;;;;;13.93;8.77;;;;;;;8.51;97.83;100003.50;5050337;28;20037;-71
2021/12/29 00:51:45;;;;;;;10.73;9.05;;;;;;;8.45;98.50;100017.88;5052580;28;20029;-71
2021/12/29 00:54:11;;;;;;;12.73;9.02;;;;;;;8.45;98.57;100011.66;5051959;28;20044;-72
2021/12/29 00:56:37;;;;;;;15.10;9.43;;;;;;;8.48;97.94;100019.28;5052193;28;20025;-72
2021/12/29 00:59:33;;;;;;;18.40;9.48;;;;;;;8.57;98.42;100025.16;5052136;28;20032;-72
2021/12/29 01:01:59;;;;;;;13.85;10.10;;;;;;;8.47;98.64;100023.03;5031899;28;20042;-71
2021/12/29 01:04:25;;;;;;;16.08;10.73;;;;;;;8.44;98.73;100040.50;5052205;28;20043;-71
2021/12/29 01:06:52;;;;;;;16.30;10.10;;;;;;;8.46;98.65;100037.59;5052546;28;20033;-71
2021/12/29 01:09:17;;;;;;;19.05;10.80;;;;;;;8.48;97.88;100046.25;5052269;28;20029;-71
2021/12/29 01:11:44;;;;;;;13.80;10.20;;;;;;;8.43;98.55;100051.50;5047945;28;20131;-72
2021/12/29 01:14:10;;;;;;;19.15;10.75;;;;;;;8.44;98.53;100048.59;5046994;28;20411;-71
2021/12/29 01:16:36;;;;;;;17.42;11.43;;;;;;;8.49;97.70;100064.91;5050528;28;20116;-71
2021/12/29 01:19:10;;;;;;;17.55;9.98;;;;;;;8.51;97.62;100075.44;5051906;28;20044;-72
2021/12/29 01:21:37;;;;;;;15.73;10.82;;;;;;;8.46;97.77;100080.72;5044272;28;20040;-71
2021/12/29 01:24:14;;;;;;;15.40;10.82;;;;;;;8.44;98.66;100074.72;5050350;28;20036;-72
2021/12/29 01:26:42;;;;;;;17.77;11.02;;;;;;;8.44;98.10;100083.66;5050639;28;20053;-72
2021/12/29 01:29:08;;;;;;;19.30;10.95;;;;;;;8.44;97.82;100089.03;5051915;28;20041;-71
2021/12/29 01:31:34;;;;;;;19.48;11.65;;;;;;;8.47;98.33;100093.13;5045767;28;20476;-71
2021/12/29 01:33:59;;;;;;;13.90;10.25;;;;;;;8.49;98.06;100105.34;5050719;28;20044;-71
2021/12/29 01:36:25;;;;;;;15.45;10.70;;;;;;;8.48;97.79;100109.09;5041504;28;20041;-72
2021/12/29 01:38:51;;;;;;;16.38;10.80;;;;;;;8.46;97.66;100124.69;5049497;28;20033;-71
2021/12/29 01:41:47;;;;;;;15.52;10.25;;;;;;;8.53;98.00;100130.00;5046947;28;20052;-71
2021/12/29 01:44:15;;;;;;;15.73;10.27;;;;;;;8.48;97.90;100133.38;5049942;28;20064;-71
2021/12/29 01:46:43;;;;;;;15.75;9.50;;;;;;;8.49;97.58;100136.88;5051561;28;20104;-71
2021/12/29 01:49:08;;;;;;;15.25;9.48;;;;;;;8.58;97.13;100127.41;5051728;28;20041;-71
2021/12/29 01:51:35;;;;;;;15.80;10.10;;;;;;;8.57;96.75;100136.53;5047263;28;20033;-72
2021/12/29 01:54:15;;;;;;;13.40;9.40;;;;;;;8.56;97.30;100145.72;5051240;28;20039;-71
2021/12/29 01:56:45;;;;;;;14.68;9.13;;;;;;;8.53;96.66;100148.88;5051585;28;20029;-71
2021/12/29 01:59:12;;;;;;;15.45;9.35;;;;;;;8.54;96.48;100147.78;5050715;28;20076;-71
2021/12/29 02:01:37;;;;;;;15.77;10.10;;;;;;;8.51;97.29;100156.34;5049266;28;20051;-71
2021/12/29 02:04:03;;;;;;;17.20;9.35;;;;;;;8.54;97.24;100163.16;5051527;28;20033;-71
2021/12/29 02:06:28;;;;;;;15.55;10.05;;;;;;;8.49;97.60;100166.53;5051441;28;20051;-71
2021/12/29 02:08:55;;;;;;;15.88;10.27;;;;;;;8.49;97.17;100169.25;5051900;28;20108;-71
2021/12/29 02:11:28;;;;;;;16.13;10.38;;;;;;;8.45;97.30;100173.44;5051555;28;20029;-71
2021/12/29 02:13:55;;;;;;;17.00;10.10;;;;;;;8.45;97.04;100162.66;5053543;28;20036;-71
2021/12/29 02:16:20;;;;;;;13.93;10.15;;;;;;;8.47;97.01;100180.25;5054040;28;20421;-72
2021/12/29 02:18:54;;;;;;;16.08;10.27;;;;;;;8.48;96.89;100191.84;5055505;28;20112;-71
2021/12/29 02:21:22;;;;;;;20.23;11.32;;;;;;;8.46;97.53;100177.78;5054176;28;20025;-71
2021/12/29 02:24:15;;;;;;;20.55;11.43;;;;;;;8.47;97.96;100190.19;5055115;28;20040;-71
2021/12/29 02:26:36;;;;;;;20.52;11.02;;;;;;;8.46;97.76;100180.47;5054958;28;20054;-72
2021/12/29 02:29:03;;;;;;;20.77;11.52;;;;;;;8.47;97.17;100191.03;5055312;28;20377;-71
2021/12/29 02:31:29;;;;;;;19.25;11.52;;;;;;;8.48;96.88;100181.06;5054875;28;20568;-71
2021/12/29 02:33:56;;;;;;;15.82;11.35;;;;;;;8.47;97.35;100182.09;5054982;28;20108;-71
2021/12/29 02:36:22;;;;;;;23.08;12.45;;;;;;;8.43;96.82;100189.00;5054970;28;20064;-71
2021/12/29 02:38:52;;;;;;;24.38;12.90;;;;;;;8.43;97.56;100186.31;5054897;28;20039;-71
2021/12/29 02:41:18;;;;;;;21.85;12.23;;;;;;;8.44;96.79;100186.09;5055241;28;20096;-72
2021/12/29 02:43:44;;;;;;;22.67;12.18;;;;;;;8.43;97.46;100189.00;5053204;28;20397;-72
2021/12/29 02:46:12;;;;;;;19.13;12.32;;;;;;;8.41;97.23;100207.25;5054709;28;20454;-72
2021/12/29 02:48:45;;;;;;;17.67;11.73;;;;;;;8.42;97.16;100190.03;5054752;28;20025;-71
2021/12/29 02:51:11;;;;;;;22.73;11.82;;;;;;;8.44;96.60;100190.66;5053562;28;20027;-72
2021/12/29 02:53:37;;;;;;;19.67;11.88;;;;;;;8.39;96.98;100190.50;5054426;28;20429;-71
2021/12/29 02:56:03;;;;;;;19.77;11.70;;;;;;;8.40;97.11;100186.75;5054730;28;20090;-71
2021/12/29 02:58:31;;;;;;;18.58;11.20;;;;;;;8.46;95.94;100188.56;5054366;28;20128;-71
2021/12/29 03:01:01;;;;;;;19.98;12.48;;;;;;;8.38;96.76;100200.47;5052572;28;20143;-71
2021/12/29 03:03:28;;;;;;;20.50;12.05;;;;;;;8.40;97.03;100211.03;5054622;28;20036;-71
2021/12/29 03:05:54;;;;;;;17.02;11.55;;;;;;;8.38;97.00;100218.50;5054681;28;20036;-71
2021/12/29 03:08:21;;;;;;;18.30;12.20;;;;;;;8.36;97.27;100215.22;5054850;28;20044;-71
2021/12/29 03:10:52;;;;;;;21.05;12.13;;;;;;;8.37;97.20;100222.25;5054371;28;20082;-71
2021/12/29 03:13:18;;;;;;;17.97;12.27;;;;;;;8.38;96.75;100229.28;5054162;28;20137;-71
2021/12/29 03:15:43;;;;;;;19.25;12.15;;;;;;;8.40;97.00;100232.59;5052936;28;20037;-71
2021/12/29 03:18:09;;;;;;;23.67;12.95;;;;;;;8.37;96.80;100249.22;5053069;28;20167;-71
2021/12/29 03:20:34;;;;;;;21.98;13.05;;;;;;;8.33;96.85;100246.13;5053914;28;20025;-71
2021/12/29 03:23:00;;;;;;;19.35;12.45;;;;;;;8.38;96.36;100246.31;5053864;28;20044;-71
2021/12/29 03:25:26;;;;;;;20.85;13.55;;;;;;;8.33;96.67;100244.28;5052854;28;20033;-71
2021/12/29 03:27:58;;;;;;;24.40;13.50;;;;;;;8.34;96.90;100262.09;5053979;28;20412;-71
2021/12/29 03:30:24;;;;;;;21.10;13.05;;;;;;;8.33;96.84;100265.00;5052600;28;20060;-71
2021/12/29 03:32:52;;;;;;;19.33;13.07;;;;;;;8.32;97.29;100261.50;5053424;28;20033;-71
2021/12/29 03:35:18;;;;;;;23.85;13.20;;;;;;;8.29;97.49;100267.34;5053823;28;20040;-71
2021/12/29 03:37:44;;;;;;;23.45;13.65;;;;;;;8.34;96.83;100275.56;5053546;28;20033;-72
2021/12/29 03:40:10;;;;;;;22.92;12.93;;;;;;;8.34;96.02;100272.88;5053674;28;20120;-72
2021/12/29 03:42:36;;;;;;;22.45;13.07;;;;;;;8.31;97.50;100276.00;5053507;28;20041;-71
2021/12/29 03:45:02;;;;;;;20.25;12.30;;;;;;;8.29;97.41;100280.00;5053921;28;20131;-71
2021/12/29 03:47:27;;;;;;;23.27;12.85;;;;;;;8.31;97.06;100278.69;5053296;28;20040;-72
2021/12/29 03:49:52;;;;;;;19.00;11.65;;;;;;;8.33;96.92;100290.09;5053508;28;20116;-72
2021/12/29 03:52:17;;;;;;;23.60;13.00;;;;;;;8.31;97.04;100291.38;5053454;28;20032;-71
2021/12/29 03:54:43;;;;;;;22.88;12.85;;;;;;;8.30;97.05;100295.09;5053442;28;20057;-71
2021/12/29 03:57:08;;;;;;;22.05;12.98;;;;;;;8.28;97.74;100308.00;5053700;28;20029;-71
2021/12/29 03:59:34;;;;;;;20.02;13.05;;;;;;;8.30;97.09;100313.97;5053205;28;20392;-72
2021/12/29 04:02:00;;;;;;;20.30;12.88;;;;;;;8.29;97.29;100307.78;5051039;28;20068;-72
2021/12/29 04:04:26;;;;;;;20.77;12.40;;;;;;;8.30;96.77;100303.19;5053438;28;20040;-71
2021/12/29 04:06:51;;;;;;;17.67;12.82;;;;;;;8.32;97.09;100312.72;5053514;28;20479;-71
2021/12/29 04:09:16;;;;;;;23.77;13.30;;;;;;;8.28;97.65;100316.91;5053709;28;20110;-72
2021/12/29 04:11:42;;;;;;;18.80;12.45;;;;;;;8.30;97.31;100311.28;5051617;28;20497;-71
2021/12/29 04:14:07;;;;;;;21.05;12.90;;;;;;;8.29;97.47;100306.97;5052964;28;20055;-71
2021/12/29 04:16:37;;;;;;;19.50;12.65;;;;;;;8.43;96.09;100310.34;5053340;28;20375;-72
2021/12/29 04:19:06;;;;;;;23.70;13.00;;;;;;;8.32;96.69;100306.50;5052941;28;20388;-71
2021/12/29 04:21:35;;;;;;;21.77;13.55;;;;;;;8.30;96.72;100311.28;5053049;28;20071;-72
2021/12/29 04:24:00;;;;;;;21.10;13.05;;;;;;;8.33;96.33;100325.16;5052740;28;20107;-71
2021/12/29 04:26:25;;;;;;;22.67;12.65;;;;;;;8.29;96.27;100323.94;5053138;28;20114;-72
2021/12/29 04:28:51;;;;;;;19.70;13.18;;;;;;;8.32;97.07;100320.81;5052883;28;20025;-71
2021/12/29 04:31:16;;;;;;;19.38;13.40;;;;;;;8.24;97.34;100322.94;5053007;28;20048;-72
2021/12/29 04:33:42;;;;;;;21.02;13.55;;;;;;;8.26;97.45;100334.34;5052492;28;20139;-71
2021/12/29 04:36:08;;;;;;;23.02;13.65;;;;;;;8.24;97.30;100339.13;5052750;28;20021;-71
2021/12/29 04:38:34;;;;;;;20.75;13.30;;;;;;;8.28;96.58;100338.47;5052698;28;20033;-72
2021/12/29 04:40:59;;;;;;;20.35;13.60;;;;;;;8.27;96.88;100342.22;5052601;28;20388;-71
2021/12/29 04:43:25;;;;;;;20.40;12.48;;;;;;;8.27;96.93;100349.47;5052616;28;20037;-71
2021/12/29 04:45:51;;;;;;;18.70;12.35;;;;;;;8.29;96.97;100358.19;5051366;28;20029;-71
2021/12/29 04:48:18;;;;;;;27.30;13.38;;;;;;;8.24;96.28;100358.00;5052245;28;20582;-71
2021/12/29 04:51:02;;;;;;;22.85;12.88;;;;;;;8.23;97.21;100364.41;5052526;28;20460;-71
2021/12/29 04:53:28;;;;;;;19.63;13.38;;;;;;;8.23;96.67;100365.28;5052381;28;20029;-71
2021/12/29 04:55:54;;;;;;;20.17;13.20;;;;;;;8.25;96.41;100379.34;5052061;28;20032;-71
2021/12/29 04:58:21;;;;;;;22.23;13.45;;;;;;;8.26;96.37;100382.88;5052651;28;20083;-72
2021/12/29 05:00:47;;;;;;;20.30;13.55;;;;;;;8.23;96.67;100384.13;5050074;28;20021;-72
2021/12/29 05:03:13;;;;;;;21.27;12.80;;;;;;;8.22;97.06;100384.34;5052361;28;20056;-71
2021/12/29 05:05:51;;;;;;;20.58;13.68;;;;;;;8.25;97.06;100376.66;5051034;28;20064;-72
2021/12/29 05:08:25;;;;;;;20.35;12.55;;;;;;;8.26;97.04;100382.88;5052556;28;20039;-71
2021/12/29 05:10:59;;;;;;;20.30;12.88;;;;;;;8.22;96.41;100374.38;5052326;28;20116;-71
2021/12/29 05:13:27;;;;;;;19.98;12.65;;;;;;;8.23;96.93;100377.91;5050741;28;20036;-71
2021/12/29 05:15:52;;;;;;;21.92;13.55;;;;;;;8.21;96.87;100374.63;5052322;28;20079;-71
2021/12/29 05:18:18;;;;;;;17.83;12.48;;;;;;;8.26;96.57;100377.50;5052202;28;20423;-71
2021/12/29 05:20:43;;;;;;;20.23;13.00;;;;;;;8.20;96.50;100381.88;5050643;28;20090;-72
2021/12/29 05:23:09;;;;;;;23.05;12.85;;;;;;;8.18;97.90;100378.56;5051913;28;20041;-71
2021/12/29 05:25:34;;;;;;;22.70;12.77;;;;;;;8.20;97.05;100378.34;5052154;28;20484;-71
2021/12/29 05:28:00;;;;;;;20.13;12.90;;;;;;;8.19;96.94;100379.41;5052366;28;20044;-71
2021/12/29 05:30:25;;;;;;;19.92;12.55;;;;;;;8.16;97.17;100381.47;5052001;28;20053;-71
2021/12/29 05:32:50;;;;;;;17.90;11.57;;;;;;;8.18;96.89;100392.03;5051130;28;20108;-71
2021/12/29 05:35:16;;;;;;;17.40;11.32;;;;;;;8.14;97.50;100390.84;5051971;28;20037;-71
2021/12/29 05:37:42;;;;;;;19.65;12.60;;;;;;;8.13;97.42;100383.81;5052037;28;20021;-71
2021/12/29 05:40:08;;;;;;;22.00;12.75;;;;;;;8.14;96.36;100391.66;5051931;28;20542;-71
2021/12/29 05:42:34;;;;;;;20.23;12.20;;;;;;;8.11;97.48;100391.28;5051365;28;20029;-71
2021/12/29 05:45:02;;;;;;;19.67;12.07;;;;;;;8.12;97.12;100392.94;5052138;28;20033;-71
2021/12/29 05:47:27;;;;;;;22.27;12.25;;;;;;;8.12;96.79;100393.78;5052169;28;20025;-71
2021/12/29 05:49:53;;;;;;;22.00;12.07;;;;;;;8.13;96.79;100399.97;5055519;28;20477;-71
2021/12/29 05:52:18;;;;;;;22.00;11.82;;;;;;;8.12;97.00;100398.31;5055698;28;20033;-71
2021/12/29 05:54:43;;;;;;;21.52;11.95;;;;;;;8.11;97.42;100383.22;5053914;28;20043;-71
2021/12/29 05:57:09;;;;;;;19.15;11.65;;;;;;;8.12;97.42;100391.06;5055646;28;20029;-71
2021/12/29 05:59:35;;;;;;;18.73;11.45;;;;;;;8.12;97.09;100395.63;5055559;28;20179;-72
2021/12/29 06:02:00;;;;;;;24.77;11.15;;;;;;;8.10;97.48;100387.75;5053250;28;20044;-71
2021/12/29 06:04:25;;;;;;;18.83;10.50;;;;;;;8.16;97.12;100399.53;5056110;28;20032;-72
2021/12/29 06:06:50;;;;;;;19.48;11.00;;;;;;;8.16;96.34;100397.66;5055648;28;20100;-71
2021/12/29 06:09:16;;;;;;;20.83;11.02;;;;;;;8.13;96.75;100399.97;5055832;28;20025;-71
2021/12/29 06:11:41;;;;;;;20.52;10.23;;;;;;;8.14;96.54;100412.41;5055472;28;20025;-71
2021/12/29 06:14:06;;;;;;;20.55;10.48;;;;;;;8.16;96.87;100418.41;5055366;28;20495;-71
2021/12/29 06:16:32;;;;;;;19.55;10.30;;;;;;;8.12;96.47;100412.63;5055892;28;20115;-71
2021/12/29 06:18:57;;;;;;;13.95;9.48;;;;;;;8.12;97.07;100425.25;5055054;28;20036;-72
2021/12/29 06:21:22;;;;;;;17.20;10.20;;;;;;;8.11;97.19;100431.72;5055017;28;20031;-72
2021/12/29 06:23:47;;;;;;;18.58;10.38;;;;;;;8.12;96.73;100436.88;5055484;28;20033;-71
2021/12/29 06:26:14;;;;;;;18.90;10.10;;;;;;;8.10;96.72;100435.44;5055386;28;20025;-71
2021/12/29 06:28:39;;;;;;;20.60;9.48;;;;;;;8.08;97.03;100442.94;5055417;28;20029;-71
2021/12/29 06:31:05;;;;;;;17.40;9.57;;;;;;;8.12;96.78;100430.66;5053521;28;20049;-71
2021/12/29 06:33:30;;;;;;;18.02;9.35;;;;;;;8.12;96.05;100447.66;5055158;28;20029;-71
2021/12/29 06:35:55;;;;;;;19.40;9.70;;;;;;;8.07;96.99;100443.97;5053814;28;20577;-72
2021/12/29 06:38:21;;;;;;;18.83;9.00;;;;;;;8.09;96.73;100453.50;5055191;28;20363;-71
2021/12/29 06:40:47;;;;;;;16.27;8.93;;;;;;;8.08;96.28;100451.03;5053415;28;20527;-71
2021/12/29 06:43:12;;;;;;;17.70;9.27;;;;;;;8.10;96.68;100448.94;5054897;28;20086;-71
2021/12/29 06:45:38;;;;;;;19.80;9.60;;;;;;;8.09;96.83;100447.25;5054595;28;20610;-72
2021/12/29 06:48:03;;;;;;;14.43;8.77;;;;;;;8.10;96.23;100457.81;5054977;28;20102;-71
2021/12/29 06:50:28;;;;;;;18.45;9.23;;;;;;;8.09;96.55;100463.44;5055315;28;20510;-71
2021/12/29 06:52:54;;;;;;;15.82;8.63;;;;;;;8.11;96.65;100466.75;5054695;28;20094;-71
2021/12/29 06:55:19;;;;;;;17.70;9.00;;;;;;;8.07;96.65;100460.16;5054520;28;20036;-71
2021/12/29 06:57:45;;;;;;;16.23;8.82;;;;;;;8.10;96.60;100459.69;5054759;28;20025;-70
2021/12/29 07:00:11;;;;;;;15.45;8.95;;;;;;;8.09;95.91;100458.03;5054788;28;20044;-71
2021/12/29 07:02:36;;;;;;;17.02;8.73;;;;;;;8.05;96.96;100451.47;5052160;28;20037;-71
2021/12/29 07:05:02;;;;;;;18.20;8.43;;;;;;;8.07;96.94;100452.06;5054494;28;20474;-71
2021/12/29 07:07:27;;;;;;;16.17;9.13;;;;;;;8.08;96.13;100457.22;5054645;28;20032;-71
2021/12/29 07:09:52;;;;;;;15.77;8.23;;;;;;;8.05;96.53;100460.38;5054395;28;20067;-71
2021/12/29 07:12:19;;;;;;;15.77;8.63;;;;;;;8.07;96.58;100469.03;5054002;28;20209;-71
2021/12/29 07:14:45;;;;;;;14.60;8.38;;;;;;;8.09;96.50;100479.59;5054330;28;20033;-71
2021/12/29 07:17:10;;;;;;;21.35;9.60;;;;;;;8.09;95.67;100476.91;5054180;28;20032;-71
2021/12/29 07:19:35;;;;;;;18.65;8.98;;;;;;;8.12;95.88;100485.41;5054436;28;20423;-71
2021/12/29 07:22:03;;;;;;;15.32;8.80;;;;;;;8.14;97.10;100487.88;5053404;28;20122;-71
2021/12/29 07:24:28;;;;;;;16.10;8.18;;;;;;;8.13;96.37;100486.22;5054350;28;20048;-71
2021/12/29 07:26:54;;;;;;;18.48;8.27;;;;;;;8.14;96.47;100493.28;5054138;28;20036;-71
2021/12/29 07:29:19;;;;;;;15.13;9.00;;;;;;;8.16;96.03;100494.69;5053961;28;20025;-71
2021/12/29 07:31:44;;;;;;;17.92;8.02;;;;;;;8.16;96.32;100513.56;5053176;28;20041;-71
2021/12/29 07:34:09;;;;;;;13.48;8.00;;;;;;;8.14;95.92;100506.75;5054104;28;20533;-72
2021/12/29 07:36:35;;;;;;;16.55;8.45;;;;;;;8.19;95.96;100512.31;5052481;28;20029;-71
2021/12/29 07:39:00;;;;;;;16.52;7.78;;;;;;;8.16;96.33;100515.44;5053804;28;20025;-72
2021/12/29 07:41:26;;;;;;;17.30;8.05;;;;;;;8.18;96.21;100521.41;5053699;28;20404;-71
2021/12/29 07:43:52;;;;;;;15.90;8.32;;;;;;;8.16;95.73;100520.81;5053712;28;20456;-73
2021/12/29 07:46:17;;;;;;;15.38;7.78;;;;;;;8.16;95.81;100523.50;5052572;28;20083;-75
2021/12/29 07:48:43;;;;;;;16.65;8.00;;;;;;;8.16;96.17;100515.44;5053635;28;20052;-76
2021/12/29 07:51:09;;;;;;;12.98;7.88;;;;;;;8.17;95.62;100514.41;5053946;28;20033;-73
2021/12/29 07:53:37;;;;;;;17.00;7.43;;;;;;;8.18;95.65;100512.53;5054090;28;20367;-73
2021/12/29 07:56:04;;;;;;;15.10;7.03;;;;;;;8.20;95.65;100513.97;5053390;28;20033;-73
2021/12/29 07:58:31;;;;;;;13.75;7.68;;;;;;;8.19;95.99;100501.50;5053230;28;20491;-73
2021/12/29 08:00:56;;;;;;;12.27;7.47;;;;;;;8.21;95.01;100510.19;5049731;28;20121;-74
2021/12/29 08:03:22;;;;;;;15.18;7.88;;;;;;;8.22;95.41;100511.84;5051856;28;20122;-73
2021/12/29 08:05:47;;;;;;;19.48;7.57;;;;;;;8.23;95.22;100523.47;5053028;28;20166;-74
2021/12/29 08:08:13;;;;;;;10.82;7.10;;;;;;;8.21;95.56;100509.38;5052225;28;20024;-73
2021/12/29 08:10:39;;;;;;;12.18;7.43;;;;;;;8.21;95.43;100509.38;5051812;28;20499;-73
2021/12/29 08:13:07;;;;;;;11.73;7.53;;;;;;;8.21;95.56;100520.97;5052901;28;20033;-74
2021/12/29 08:15:33;;;;;;;14.48;8.20;;;;;;;8.23;95.87;100524.31;5053594;28;20032;-73
2021/12/29 08:18:02;;;;;;;12.68;8.27;;;;;;;8.24;95.73;100523.25;5052369;28;20469;-74
2021/12/29 08:20:27;;;;;;;12.40;7.03;;;;;;;8.28;95.79;100521.78;5052928;28;20025;-76
2021/12/29 08:22:52;;;;;;;12.00;7.95;;;;;;;8.26;95.68;100518.47;5053118;28;20389;-76
2021/12/29 08:25:18;;;;;;;10.88;7.60;;;;;;;8.31;95.67;100525.91;5051963;28;20029;-78
2021/12/29 08:27:44;;;;;;;13.95;7.88;;;;;;;8.30;95.42;100519.69;5052427;28;20040;-73
2021/12/29 08:30:10;;;;;;;13.10;7.60;;;;;;;8.34;95.56;100528.16;5052643;28;20106;-73
2021/12/29 08:32:35;;;;;;;12.93;7.75;;;;;;;8.33;95.07;100526.50;5051728;28;20099;-73
2021/12/29 08:35:01;;;;;;;16.70;7.90;;;;;;;8.33;95.47;100531.91;5052523;28;20033;-74
2021/12/29 08:37:26;;;;;;;11.48;7.70;;;;;;;8.30;94.76;100529.63;5053019;28;20029;-73
2021/12/29 08:39:51;;;;;;;13.57;8.20;;;;;;;8.29;94.59;100526.13;5052674;28;20032;-73
2021/12/29 08:42:16;;;;;;;18.10;8.80;;;;;;;8.33;95.02;100521.13;5052612;28;20142;-73
2021/12/29 08:44:42;;;;;;;14.48;9.20;;;;;;;8.31;95.42;100512.44;5051554;28;20036;-73
2021/12/29 08:47:08;;;;;;;13.52;8.65;;;;;;;8.31;94.35;100526.72;5052664;28;20037;-73
2021/12/29 08:49:34;;;;;;;12.00;8.98;;;;;;;8.33;94.16;100521.97;5052826;28;20052;-73
2021/12/29 08:51:59;;;;;;;15.20;9.15;;;;;;;8.32;94.64;100533.78;5051564;28;20392;-73
2021/12/29 08:54:26;;;;;;;14.43;8.88;;;;;;;8.35;94.15;100521.75;5041773;28;20047;-74
2021/12/29 08:56:53;;;;;;;14.35;9.10;;;;;;;8.42;94.03;100527.06;5052321;28;20489;-74
2021/12/29 08:59:19;;;;;;;14.27;10.15;;;;;;;8.43;94.20;100529.56;5051102;28;20033;-77
2021/12/29 09:01:44;;;;;;;15.75;9.55;;;;;;;8.44;94.10;100536.63;5050150;28;20040;-77
2021/12/29 09:04:09;;;;;;;15.70;9.10;;;;;;;8.46;94.40;100529.16;5052149;28;20029;-75
2021/12/29 09:06:35;;;;;;;15.27;9.45;;;;;;;8.43;93.47;100531.44;5051300;28;20102;-74
2021/12/29 09:09:00;;;;;;;14.82;9.98;;;;;;;8.46;93.19;100531.84;5050399;28;20039;-73
2021/12/29 09:11:25;;;;;;;17.15;9.73;;;;;;;8.46;93.53;100518.34;5052058;28;20108;-77
2021/12/29 09:13:53;;;;;;;13.30;9.68;;;;;;;8.46;92.95;100518.34;5051121;28;20032;-74
2021/12/29 09:16:19;;;;;;;14.18;9.85;;;;;;;8.49;92.63;100527.88;5052367;28;20078;-73
2021/12/29 09:18:44;;;;;;;11.95;9.30;;;;;;;8.50;92.51;100519.59;5050219;28;20051;-74
2021/12/29 09:21:15;;;;;;;15.60;9.95;;;;;;;8.52;92.50;100522.06;5051964;28;20108;-72
2021/12/29 09:23:42;;;;;;;13.50;9.30;;;;;;;8.53;92.84;100518.31;5053984;28;20043;-75
2021/12/29 09:26:11;;;;;;;14.52;9.27;;;;;;;8.55;92.19;100526.19;5054766;28;20291;-74
2021/12/29 09:28:37;;;;;;;16.77;9.10;;;;;;;8.59;92.41;100522.84;5056188;28;20029;-74
2021/12/29 09:31:02;;;;;;;18.00;9.48;;;;;;;8.55;91.88;100500.03;5046672;28;20050;-75
2021/12/29 09:33:28;;;;;;;14.57;9.32;;;;;;;8.59;92.34;100506.66;5035378;28;20366;-77
2021/12/29 09:35:57;;;;;;;17.08;9.63;;;;;;;8.56;92.28;100512.50;5034958;28;20116;-77
2021/12/29 09:38:23;;;;;;;15.23;8.95;;;;;;;8.57;91.82;100518.69;5036590;28;20472;-79
2021/12/29 09:40:50;;;;;;;11.23;9.32;;;;;;;8.56;91.85;100517.88;5054508;28;20037;-77
2021/12/29 09:43:17;;;;;;;16.25;9.35;;;;;;;8.55;92.65;100510.81;5053754;28;20039;-73
2021/12/29 09:45:46;;;;;;;12.68;9.20;;;;;;;8.62;92.32;100522.41;5062521;28;20427;-75
2021/12/29 09:48:12;;;;;;;13.55;8.85;;;;;;;8.65;92.00;100516.56;5050234;28;20093;-74
2021/12/29 09:50:39;;;;;;;13.70;8.65;;;;;;;8.67;92.23;100514.47;5055494;28;20028;-74
2021/12/29 09:53:06;;;;;;;14.52;8.20;;;;;;;8.69;92.09;100500.75;5055094;28;20461;-73
2021/12/29 09:55:32;;;;;;;11.55;8.48;;;;;;;8.67;92.14;100490.19;5054185;28;20025;-71
2021/12/29 09:57:59;;;;;;;12.27;7.97;;;;;;;8.71;91.52;100495.13;5053756;28;20032;-72
2021/12/29 10:00:42;;;;;;;14.80;7.22;;;;;;;8.67;91.39;100497.47;5068865;28;20041;-73
2021/12/29 10:03:09;;;;;;;13.75;7.95;;;;;;;8.67;91.40;100498.28;5053835;28;20040;-74
2021/12/29 10:05:37;;;;;;;12.65;7.25;;;;;;;8.72;91.64;100499.50;5054161;28;20065;-73
2021/12/29 10:08:11;;;;;;;12.48;7.22;;;;;;;8.74;91.59;100508.19;5054564;28;20108;-72
2021/12/29 10:10:40;;;;;;;11.93;7.70;;;;;;;8.74;91.41;100519.81;5034186;28;20043;-72
2021/12/29 10:13:08;;;;;;;12.57;6.68;;;;;;;8.78;91.40;100512.09;5035276;28;20120;-71
2021/12/29 10:15:38;;;;;;;13.23;7.00;;;;;;;8.75;91.68;100510.66;5035725;28;20021;-72
2021/12/29 10:18:08;;;;;;;11.68;6.50;;;;;;;8.79;91.22;100511.06;5054493;28;20029;-75
2021/12/29 10:20:45;;;;;;;12.18;6.93;;;;;;;8.83;91.55;100512.25;5055434;28;20036;-76
2021/12/29 10:23:16;;;;;;;12.68;6.68;;;;;;;8.81;91.47;100506.25;5054221;28;20092;-76
2021/12/29 10:25:42;;;;;;;11.38;6.82;;;;;;;8.81;91.48;100498.97;5064725;28;20029;-74
2021/12/29 10:28:25;;;;;;;15.55;6.55;;;;;;;8.86;91.68;100487.50;5060491;28;20102;-74
2021/12/29 10:31:00;;;;;;;12.50;6.25;;;;;;;8.85;91.91;100488.56;5061308;28;20071;-74
2021/12/29 10:37:08;;;;;;;13.05;6.15;;;;;;;8.84;91.25;100476.13;5079670;23;20158;-75
2021/12/29 10:39:37;;;;;;;11.43;5.63;;;;;;;8.85;91.12;100473.19;4935642;29;20060;-75
2021/12/29 10:42:09;;;;;;;13.75;6.03;;;;;;;8.86;91.38;100479.41;4920381;29;20054;-75
2021/12/29 10:44:41;;;;;;;12.85;5.38;;;;;;;8.86;91.28;100482.97;4937570;29;20036;-73
2021/12/29 10:47:22;;;;;;;13.00;5.85;;;;;;;8.90;91.54;100477.13;4920644;29;20467;-74
2021/12/29 10:49:58;;;;;;;15.47;5.63;;;;;;;8.89;91.06;100468.16;4937572;29;20067;-78
2021/12/29 10:52:38;;;;;;;9.02;4.82;;;;;;;8.90;92.21;100477.94;4947450;29;20295;-74
2021/12/29 10:55:08;;;;;;;14.65;5.40;;;;;;;8.90;92.02;100474.41;4920650;29;20070;-74
2021/12/29 10:57:34;;;;;;;13.38;5.10;;;;;;;8.92;91.65;100472.31;4916526;29;20059;-74
2021/12/29 10:59:59;;;;;;;13.30;5.32;;;;;;;8.88;91.71;100469.25;4937812;29;20479;-74
2021/12/29 11:02:31;;;;;;;11.68;4.90;;;;;;;8.86;91.89;100488.34;4916615;29;20048;-74
2021/12/29 11:05:14;;;;;;;12.63;4.97;;;;;;;8.92;91.27;100500.09;4920349;29;20509;-74
2021/12/29 11:07:40;;;;;;;18.17;4.82;;;;;;;8.90;91.39;100507.59;4919929;29;20031;-73
2021/12/29 11:10:15;;;;;;;11.48;5.00;;;;;;;8.84;91.56;100495.00;4937687;29;20065;-73
2021/12/29 11:12:56;;;;;;;13.30;4.70;;;;;;;8.87;91.82;100491.88;4956625;29;20114;-73
2021/12/29 11:15:30;;;;;;;12.80;5.07;;;;;;;8.88;91.86;100482.72;4939046;29;20035;-73
2021/12/29 11:18:01;;;;;;;12.30;4.70;;;;;;;8.89;91.39;100489.75;4956569;29;20035;-75
2021/12/29 11:20:27;;;;;;;13.68;4.80;;;;;;;8.89;91.82;100495.16;4956364;29;20110;-75
2021/12/29 11:23:05;;;;;;;12.90;4.38;;;;;;;8.91;92.47;100493.09;4936930;29;20043;-74
2021/12/29 11:25:32;;;;;;;13.80;4.80;;;;;;;8.89;92.30;100478.97;4936827;29;20028;-76